»·PEaware :: N944XS KSBP-KMHV

N944XS :: KSBP-KMHV

FLIGHT INFORMATION

Flight Status: Arrived
Operator: Privately registered:
United States
More flights under this callsign
Pilot: James S. (18325)
Aircraft: MITSUBISHI MU-2 MARQUISE
(MU2)
More flights by this aircraft type
Origin: KSBP San Luis Co Regl
United States
Destination: KMHV Mojave
United States
More flights between these airports :: More routes between these airports
Route: +FLW GMN
File this flight plan on PilotEdge
Remarks:
Altitude:
(Current/Filed)
15,000ft
Speed:
(Current/Filed)
230kts
Departed: 11-May-18 11:13 AM
Arrived: 11-May-18 11:56 AM
Distance/Time
Traveled:
123nm/0:43
Distance/Time
To Go:
Arrived

Flight Plot

Page will automatically refresh every two minutes.

Flight plan parsing failed; only flown route is shown


Map Options




Map Legend


Flown Route
Filed Route
Departure Airport
Arrival Airport
Navaid (VOR, NDB)
Fix

Horizontal Profiles

Position Reports

Time Latitude Longitude Heading Altitude Ground
Speed
11-May-18 10:58 35.238921 -120.639406 180 179ft 0kts
11-May-18 10:59 35.238921 -120.639406 180 179ft 0kts
11-May-18 11:00 35.238921 -120.639406 180 179ft 0kts
11-May-18 11:01 35.238921 -120.639406 180 179ft 0kts
11-May-18 11:02 35.238921 -120.639406 180 179ft 0kts
11-May-18 11:03 35.238921 -120.639406 180 179ft 0kts
11-May-18 11:04 35.238921 -120.639406 180 179ft 0kts
11-May-18 11:05 35.238921 -120.639406 180 179ft 0kts
11-May-18 11:06 35.238921 -120.639406 180 179ft 0kts
11-May-18 11:07 35.237863 -120.639542 175 179ft 7kts
11-May-18 11:08 35.235683 -120.635971 124 179ft 16kts
11-May-18 11:09 35.233234 -120.632221 213 179ft 0kts
11-May-18 11:10 35.233234 -120.632222 213 179ft 0kts
11-May-18 11:11 35.233234 -120.632222 213 179ft 0kts
11-May-18 11:12 35.232862 -120.632954 308 179ft 9kts
11-May-18 11:13 35.252565 -120.668042 300 672ft 183kts
11-May-18 11:14 35.279605 -120.716923 302 2799ft 180kts
11-May-18 11:15 35.308156 -120.766356 302 4646ft 182kts
11-May-18 11:16 35.342040 -120.824734 302 4960ft 244kts
11-May-18 11:17 35.362391 -120.898764 227 4919ft 242kts
11-May-18 11:18 35.312739 -120.883925 105 5837ft 209kts
11-May-18 11:19 35.301540 -120.814480 103 7402ft 212kts
11-May-18 11:20 35.288997 -120.738132 103 8022ft 250kts
11-May-18 11:21 35.274281 -120.651459 103 8012ft 269kts
11-May-18 11:22 35.258521 -120.560586 103 8741ft 275kts
11-May-18 11:23 35.241963 -120.469108 102 9685ft 276kts
11-May-18 11:24 35.224763 -120.381590 103 10607ft 260kts
11-May-18 11:25 35.206599 -120.296306 103 12092ft 265kts
11-May-18 11:26 35.187503 -120.208848 103 13475ft 272kts
11-May-18 11:27 35.167627 -120.118554 103 14813ft 279kts
11-May-18 11:28 35.140884 -120.023214 109 15017ft 316kts
11-May-18 11:29 35.109729 -119.920278 109 15014ft 331kts
11-May-18 11:30 35.078673 -119.814095 107 15014ft 336kts
11-May-18 11:31 35.048195 -119.706569 107 14998ft 338kts
11-May-18 11:32 35.023697 -119.620499 108 14965ft 340kts
11-May-18 11:33 34.995466 -119.521684 108 14938ft 342kts
11-May-18 11:34 34.964380 -119.413274 108 14934ft 342kts
11-May-18 11:35 34.933792 -119.307022 109 14919ft 343kts
11-May-18 11:36 34.902236 -119.197859 109 14911ft 343kts
11-May-18 11:37 34.870625 -119.088813 109 14849ft 344kts
11-May-18 11:38 34.839428 -118.981709 110 14986ft 325kts
11-May-18 11:39 34.809431 -118.878941 104 15065ft 322kts
11-May-18 11:40 34.834614 -118.777226 64 15084ft 319kts
11-May-18 11:41 34.870202 -118.678728 63 14691ft 317kts
11-May-18 11:42 34.905824 -118.581291 61 13941ft 312kts
11-May-18 11:43 34.944678 -118.490446 54 12701ft 301kts
11-May-18 11:44 34.976005 -118.397644 68 10891ft 294kts
11-May-18 11:45 35.008003 -118.312110 53 9003ft 279kts
11-May-18 11:46 35.048580 -118.234456 43 7090ft 266kts
11-May-18 11:47 35.110893 -118.196194 42 5042ft 262kts
11-May-18 11:48 35.098016 -118.119475 140 3842ft 239kts
11-May-18 11:49 35.085027 -118.050351 69 3795ft 187kts
11-May-18 11:50 35.113207 -118.048297 289 3664ft 125kts
11-May-18 11:51 35.126204 -118.102554 263 3816ft 203kts
11-May-18 11:52 35.083250 -118.132281 149 3816ft 180kts
11-May-18 11:53 35.061114 -118.088974 185 3246ft 133kts
11-May-18 11:54 35.058592 -118.113948 283 3057ft 101kts
11-May-18 11:55 35.059175 -118.147277 272 2760ft 68kts
11-May-18 11:56 35.058091 -118.149588 170 2760ft 16kts
11-May-18 11:57 35.057034 -118.150490 187 2760ft 0kts
11-May-18 11:58 35.057034 -118.150490 187 2760ft 0kts

Navigation Log

Ident Type
Flight plan parsing failed, navigation log unavailable